createdAt,value
2023-05-10T00:01:35.427Z,2.50
2023-05-10T00:04:36.908Z,2.60
2023-05-10T00:07:38.421Z,2.50
2023-05-10T00:10:39.979Z,2.50
2023-05-10T00:13:41.501Z,2.37
2023-05-10T00:16:43.082Z,2.60
2023-05-10T00:19:44.620Z,2.50
2023-05-10T00:22:46.184Z,2.55
2023-05-10T00:25:47.756Z,2.50
2023-05-10T00:28:49.242Z,2.70
2023-05-10T00:31:50.783Z,2.75
2023-05-10T00:34:52.519Z,3.62
2023-05-10T00:37:54.003Z,3.75
2023-05-10T00:40:55.721Z,3.10
2023-05-10T00:43:57.235Z,3.12
2023-05-10T00:46:59.123Z,3.40
2023-05-10T00:50:01.736Z,3.35
2023-05-10T00:53:03.582Z,3.03
2023-05-10T00:56:05.196Z,3.42
2023-05-10T00:59:06.786Z,3.35
2023-05-10T01:02:08.318Z,3.72
2023-05-10T01:05:09.929Z,3.80
2023-05-10T01:08:11.486Z,4.07
2023-05-10T01:11:13.051Z,4.25
2023-05-10T01:14:14.896Z,3.75
2023-05-10T01:17:17.252Z,3.80
2023-05-10T01:20:19.150Z,4.03
2023-05-10T01:23:26.950Z,4.22
2023-05-10T01:26:45.232Z,3.58
2023-05-10T01:30:02.154Z,3.90
2023-05-10T01:33:43.595Z,4.27
2023-05-10T01:37:14.244Z,4.22
2023-05-10T01:40:23.005Z,3.78
2023-05-10T01:43:29.212Z,3.97
2023-05-10T01:46:38.627Z,3.95
2023-05-10T01:49:44.545Z,4.28
2023-05-10T01:52:49.174Z,4.03
2023-05-10T01:55:53.492Z,3.85
2023-05-10T01:58:56.513Z,4.60
2023-05-10T02:01:59.813Z,4.00
2023-05-10T02:05:01.584Z,4.20
2023-05-10T02:08:04.087Z,5.05
2023-05-10T02:11:06.583Z,4.43
2023-05-10T02:14:10.523Z,5.03
2023-05-10T02:17:12.482Z,4.85
2023-05-10T02:20:15.185Z,4.90
2023-05-10T02:23:18.197Z,5.20
2023-05-10T02:26:22.092Z,4.93
2023-05-10T02:29:25.673Z,4.50
2023-05-10T02:32:28.751Z,4.57
2023-05-10T02:35:31.058Z,5.55
2023-05-10T02:38:33.119Z,5.35
2023-05-10T02:41:34.735Z,5.78
2023-05-10T02:44:37.357Z,8.20
2023-05-10T02:47:39.070Z,5.68
2023-05-10T02:50:42.512Z,3.85
2023-05-10T02:53:45.263Z,3.60
2023-05-10T02:56:56.431Z,3.80
2023-05-10T02:59:57.937Z,3.50
2023-05-10T03:02:59.702Z,3.80
2023-05-10T03:06:01.300Z,4.10
2023-05-10T03:09:03.522Z,4.68
2023-05-10T03:12:08.444Z,3.83
2023-05-10T03:15:17.769Z,3.62
2023-05-10T03:18:45.405Z,4.28
2023-05-10T03:21:51.104Z,4.23
2023-05-10T03:24:54.758Z,3.92
2023-05-10T03:27:57.246Z,3.60
2023-05-10T03:30:59.727Z,3.92
2023-05-10T03:34:01.365Z,4.12
2023-05-10T03:37:02.902Z,4.18
2023-05-10T03:40:04.653Z,4.72
2023-05-10T03:43:06.183Z,4.15
2023-05-10T03:46:07.755Z,4.43
2023-05-10T03:49:09.323Z,4.55
2023-05-10T03:52:11.199Z,4.62
2023-05-10T03:55:12.834Z,4.57
2023-05-10T03:58:14.380Z,4.68
2023-05-10T04:01:16.081Z,4.22
2023-05-10T04:04:19.595Z,4.15
2023-05-10T04:07:21.369Z,4.32
2023-05-10T04:10:22.955Z,4.90
2023-05-10T04:13:24.557Z,4.75
2023-05-10T04:16:26.112Z,5.12
2023-05-10T04:19:33.929Z,5.45
2023-05-10T04:22:35.507Z,5.20
2023-05-10T04:25:37.032Z,4.93
2023-05-10T04:28:38.933Z,4.50
2023-05-10T04:31:40.517Z,4.78
2023-05-10T04:34:41.980Z,5.00
2023-05-10T04:37:44.238Z,5.30
2023-05-10T04:40:45.737Z,5.53
2023-05-10T04:43:47.205Z,5.43
2023-05-10T04:46:48.803Z,5.12
2023-05-10T04:49:50.370Z,5.85
2023-05-10T04:52:53.280Z,5.00
2023-05-10T04:55:54.943Z,6.07
2023-05-10T04:58:56.534Z,5.15
2023-05-10T05:01:58.105Z,5.43
2023-05-10T05:04:59.625Z,5.87
2023-05-10T05:08:01.621Z,6.20
2023-05-10T05:11:03.239Z,5.40
2023-05-10T05:14:04.714Z,5.90
2023-05-10T05:17:06.190Z,5.12
2023-05-10T05:20:08.269Z,5.28
2023-05-10T05:23:09.846Z,5.05
2023-05-10T05:26:11.705Z,5.20
2023-05-10T05:29:13.329Z,5.57
2023-05-10T05:32:14.838Z,6.18
2023-05-10T05:35:16.594Z,5.30
2023-05-10T05:38:18.650Z,4.72
2023-05-10T05:41:20.964Z,4.47
2023-05-10T05:44:22.577Z,4.68
2023-05-10T05:47:24.133Z,4.75
2023-05-10T05:50:25.705Z,4.85
2023-05-10T05:53:27.287Z,5.75
2023-05-10T05:56:28.782Z,5.20
2023-05-10T05:59:30.522Z,4.93
2023-05-10T06:02:32.107Z,4.72
2023-05-10T06:05:33.726Z,4.40
2023-05-10T06:08:35.384Z,5.72
2023-05-10T06:11:37.197Z,4.70
2023-05-10T06:14:38.678Z,5.10
2023-05-10T06:17:41.247Z,4.72
2023-05-10T06:20:43.269Z,4.82
2023-05-10T06:23:44.968Z,4.80
2023-05-10T06:26:46.534Z,4.62
2023-05-10T06:29:49.179Z,4.20
2023-05-10T06:32:52.913Z,5.05
2023-05-10T06:35:54.431Z,4.75
2023-05-10T06:38:55.911Z,4.50
2023-05-10T06:41:57.791Z,4.53
2023-05-10T06:44:59.273Z,4.12
2023-05-10T06:48:00.892Z,5.12
2023-05-10T06:51:02.448Z,4.07
2023-05-10T06:54:04.277Z,3.97
2023-05-10T06:57:10.774Z,4.70
2023-05-10T07:00:18.742Z,4.30
2023-05-10T07:03:20.640Z,4.43
2023-05-10T07:06:33.015Z,4.20
2023-05-10T07:09:35.217Z,4.95
2023-05-10T07:12:36.785Z,4.18
2023-05-10T07:15:38.367Z,4.03
2023-05-10T07:18:39.932Z,4.05
2023-05-10T07:21:43.638Z,3.65
2023-05-10T07:24:45.255Z,3.53
2023-05-10T07:27:49.420Z,3.47
2023-05-10T07:30:51.001Z,3.40
2023-05-10T07:33:52.645Z,3.12
2023-05-10T07:36:54.206Z,3.55
2023-05-10T07:39:55.707Z,2.83
2023-05-10T07:42:57.279Z,3.22
2023-05-10T07:46:00.776Z,3.03
2023-05-10T07:49:02.484Z,2.90
2023-05-10T07:52:04.515Z,3.20
2023-05-10T07:55:06.501Z,3.20
2023-05-10T07:58:08.127Z,2.90
2023-05-10T08:01:09.620Z,2.45
2023-05-10T08:04:11.478Z,2.62
2023-05-10T08:07:13.001Z,2.40
2023-05-10T08:10:14.549Z,2.20
2023-05-10T08:13:16.129Z,2.20
2023-05-10T08:16:18.093Z,2.30
2023-05-10T08:19:20.693Z,1.95
2023-05-10T08:22:22.458Z,2.00
2023-05-10T08:25:23.947Z,2.30
2023-05-10T08:28:25.449Z,2.20
2023-05-10T08:31:27.016Z,2.20
2023-05-10T08:34:28.586Z,2.20
2023-05-10T08:37:31.041Z,2.28
2023-05-10T08:40:32.880Z,2.03
2023-05-10T08:43:36.836Z,2.00
2023-05-10T08:46:40.820Z,2.25
2023-05-10T08:49:42.722Z,2.03
2023-05-10T08:52:45.047Z,1.90
2023-05-10T08:55:47.267Z,2.40
2023-05-10T08:58:49.952Z,2.40
2023-05-10T09:01:51.533Z,2.10
2023-05-10T09:04:53.217Z,2.05
2023-05-10T09:07:54.810Z,2.08
2023-05-10T09:10:56.357Z,2.15
2023-05-10T09:13:57.851Z,2.35
2023-05-10T09:16:59.649Z,2.05
2023-05-10T09:20:02.035Z,2.00
2023-05-10T09:23:03.574Z,2.03
2023-05-10T09:26:05.917Z,1.87
2023-05-10T09:29:09.466Z,1.62
2023-05-10T09:32:10.969Z,2.00
2023-05-10T09:35:13.550Z,2.40
2023-05-10T09:38:15.158Z,1.60
2023-05-10T09:41:18.445Z,1.90
2023-05-10T09:44:20.587Z,1.90
2023-05-10T09:47:22.105Z,1.87
2023-05-10T09:50:24.009Z,1.87
2023-05-10T09:53:25.516Z,2.30
2023-05-10T09:56:41.431Z,1.92
2023-05-10T09:59:46.296Z,2.03
2023-05-10T10:02:49.209Z,2.10
2023-05-10T10:05:51.301Z,1.80
2023-05-10T10:08:55.647Z,1.60
2023-05-10T10:11:58.538Z,1.58
2023-05-10T10:15:00.601Z,1.40
2023-05-10T10:18:02.541Z,1.40
2023-05-10T10:21:04.088Z,1.67
2023-05-10T10:24:06.837Z,1.30
2023-05-10T10:27:27.234Z,1.52
2023-05-10T10:30:40.852Z,2.05
2023-05-10T10:33:51.525Z,1.45
2023-05-10T10:36:53.021Z,1.30
2023-05-10T10:39:56.415Z,1.73
2023-05-10T10:42:58.648Z,1.60
2023-05-10T10:46:15.453Z,1.37
2023-05-10T10:49:18.260Z,1.47
2023-05-10T10:52:24.660Z,1.80
2023-05-10T10:55:27.631Z,1.60
2023-05-10T10:58:35.482Z,1.40
2023-05-10T11:01:37.183Z,1.80
2023-05-10T11:04:44.205Z,1.50
2023-05-10T11:07:55.933Z,1.25
2023-05-10T11:11:00.672Z,1.58
2023-05-10T11:14:06.928Z,1.37
2023-05-10T11:17:25.098Z,1.70
2023-05-10T11:20:34.555Z,1.23
2023-05-10T11:23:50.230Z,1.20
2023-05-10T11:26:52.796Z,1.42
2023-05-10T11:29:54.325Z,1.40
2023-05-10T11:32:56.136Z,1.30
2023-05-10T11:35:57.902Z,1.37
2023-05-10T11:38:59.512Z,1.30
2023-05-10T11:42:01.248Z,1.45
2023-05-10T11:45:02.808Z,1.33
2023-05-10T11:48:04.724Z,1.67
2023-05-10T11:51:06.355Z,1.50
2023-05-10T11:54:11.621Z,1.62
2023-05-10T11:57:13.265Z,1.55
2023-05-10T12:00:15.449Z,1.30
2023-05-10T12:03:17.475Z,1.30
2023-05-10T12:06:22.349Z,1.20
2023-05-10T12:12:36.450Z,1.25
2023-05-10T12:15:37.945Z,1.40
2023-05-10T12:18:40.972Z,1.00
2023-05-10T12:21:42.594Z,1.60
2023-05-10T12:24:46.408Z,1.60
2023-05-10T12:31:17.323Z,1.25
2023-05-10T12:34:25.104Z,1.15
2023-05-10T12:37:28.702Z,1.10
2023-05-10T12:40:30.378Z,1.35
2023-05-10T12:43:31.968Z,1.20
2023-05-10T12:46:33.463Z,1.00
2023-05-10T12:49:35.265Z,1.00
2023-05-10T12:52:36.935Z,1.02
2023-05-10T12:55:38.402Z,1.23
2023-05-10T12:58:39.805Z,1.00
2023-05-10T13:01:41.432Z,1.12
2023-05-10T13:04:43.041Z,1.40
2023-05-10T13:07:44.971Z,0.80
2023-05-10T13:10:46.545Z,1.33
2023-05-10T13:13:47.957Z,1.40
2023-05-10T13:16:49.494Z,0.90
2023-05-10T13:19:50.994Z,1.02
2023-05-10T13:22:52.475Z,1.37
2023-05-10T13:25:53.944Z,1.02
2023-05-10T13:28:56.605Z,1.15
2023-05-10T13:31:58.157Z,1.20
2023-05-10T13:34:59.650Z,1.20
2023-05-10T13:38:01.188Z,1.62
2023-05-10T13:41:02.646Z,1.52
2023-05-10T13:44:04.111Z,1.23
2023-05-10T13:47:05.876Z,1.67
2023-05-10T13:50:07.634Z,1.48
2023-05-10T13:53:09.244Z,1.67
2023-05-10T13:56:10.768Z,1.40
2023-05-10T13:59:12.244Z,1.40
2023-05-10T14:02:14.226Z,1.45
2023-05-10T14:05:16.198Z,2.80
2023-05-10T14:08:18.676Z,1.40
2023-05-10T14:11:22.093Z,1.40
2023-05-10T14:14:24.791Z,1.50
2023-05-10T14:17:26.260Z,1.75
2023-05-10T14:20:27.709Z,1.90
2023-05-10T14:23:29.871Z,1.58
2023-05-10T14:26:31.382Z,1.95
2023-05-10T14:29:33.066Z,1.50
2023-05-10T14:32:34.982Z,1.58
2023-05-10T14:35:36.898Z,1.65
2023-05-10T14:38:38.343Z,1.83
2023-05-10T14:41:41.885Z,1.70
2023-05-10T14:44:43.299Z,2.00
2023-05-10T14:47:44.804Z,1.77
2023-05-10T14:50:46.235Z,1.90
2023-05-10T14:53:47.696Z,2.10
2023-05-10T14:56:50.987Z,1.50
2023-05-10T14:59:52.497Z,1.67
2023-05-10T15:02:54.426Z,1.70
2023-05-10T15:05:58.557Z,1.67
2023-05-10T15:09:00.758Z,1.83
2023-05-10T15:12:02.185Z,4.90
2023-05-10T15:15:03.968Z,5.75
2023-05-10T15:18:06.705Z,7.45
2023-05-10T15:21:08.262Z,2.12
2023-05-10T15:24:09.928Z,2.50
2023-05-10T15:27:11.472Z,1.70
2023-05-10T15:30:13.290Z,1.55
2023-05-10T15:33:14.780Z,2.03
2023-05-10T15:36:17.895Z,1.50
2023-05-10T15:39:19.387Z,1.50
2023-05-10T15:42:20.867Z,1.67
2023-05-10T15:45:22.766Z,1.52
2023-05-10T15:48:24.274Z,1.70
2023-05-10T15:51:26.249Z,1.90
2023-05-10T15:54:27.794Z,2.87
2023-05-10T15:57:29.286Z,3.40
2023-05-10T16:00:31.356Z,4.30
2023-05-10T16:03:35.888Z,1.80
2023-05-10T16:06:39.102Z,2.55
2023-05-10T16:09:41.304Z,1.65
2023-05-10T16:12:42.889Z,1.40
2023-05-10T16:15:44.416Z,1.30
2023-05-10T16:18:46.064Z,1.58
2023-05-10T16:21:47.737Z,1.50
2023-05-10T16:24:49.298Z,1.85
2023-05-10T16:27:51.195Z,1.60
2023-05-10T16:30:53.044Z,1.50
2023-05-10T16:33:54.636Z,1.55
2023-05-10T16:36:56.161Z,1.75
2023-05-10T16:39:57.643Z,1.33
2023-05-10T16:42:59.177Z,2.10
2023-05-10T16:46:00.883Z,2.50
2023-05-10T16:49:02.725Z,2.97
2023-05-10T16:52:04.218Z,3.05
2023-05-10T16:55:06.039Z,2.55
2023-05-10T16:58:07.539Z,2.22
2023-05-10T17:01:09.616Z,2.08
2023-05-10T17:04:11.166Z,2.20
2023-05-10T17:07:13.308Z,2.22
2023-05-10T17:10:14.918Z,2.12
2023-05-10T17:13:17.305Z,2.42
2023-05-10T17:16:19.079Z,2.10
2023-05-10T17:19:20.591Z,2.10
2023-05-10T17:22:22.082Z,2.08
2023-05-10T17:25:23.575Z,1.90
2023-05-10T17:28:25.127Z,1.62
2023-05-10T17:31:26.877Z,1.67
2023-05-10T17:34:28.431Z,1.45
2023-05-10T17:37:29.939Z,1.80
2023-05-10T17:40:32.141Z,1.50
2023-05-10T17:43:33.634Z,1.92
2023-05-10T17:46:35.207Z,1.83
2023-05-10T17:49:36.694Z,1.90
2023-05-10T17:52:38.215Z,1.95
2023-05-10T17:55:40.853Z,1.77
2023-05-10T17:58:42.439Z,2.17
2023-05-10T18:01:44.163Z,1.90
2023-05-10T18:04:46.124Z,1.80
2023-05-10T18:07:47.747Z,1.83
2023-05-10T18:10:49.494Z,1.90
2023-05-10T18:13:51.005Z,1.98
2023-05-10T18:16:52.686Z,3.87
2023-05-10T18:19:54.322Z,4.00
2023-05-10T18:22:56.686Z,4.55
2023-05-10T18:25:58.343Z,3.95
2023-05-10T18:29:01.653Z,4.12
2023-05-10T18:32:03.475Z,3.83
2023-05-10T18:35:06.451Z,4.00
2023-05-10T18:38:09.991Z,3.08
2023-05-10T18:41:13.474Z,3.28
2023-05-10T18:44:15.417Z,3.00
2023-05-10T18:47:17.437Z,2.65
2023-05-10T18:50:20.217Z,2.40
2023-05-10T18:53:22.803Z,2.12
2023-05-10T18:56:24.916Z,2.37
2023-05-10T18:59:27.931Z,2.30
2023-05-10T19:02:30.161Z,2.45
2023-05-10T19:05:32.238Z,2.25
2023-05-10T19:08:34.231Z,2.22
2023-05-10T19:11:36.596Z,2.22
2023-05-10T19:14:39.002Z,2.30
2023-05-10T19:17:43.331Z,2.60
2023-05-10T19:20:47.793Z,2.12
2023-05-10T19:23:51.265Z,2.37
2023-05-10T19:26:57.044Z,2.67
2023-05-10T19:29:58.931Z,3.25
2023-05-10T19:33:05.409Z,3.78
2023-05-10T19:36:09.224Z,4.28
2023-05-10T19:39:11.988Z,4.50
2023-05-10T19:42:14.345Z,5.85
2023-05-10T19:45:16.795Z,3.78
2023-05-10T19:48:19.042Z,3.37
2023-05-10T19:51:21.776Z,3.00
2023-05-10T19:54:23.893Z,2.72
2023-05-10T19:57:25.644Z,3.00
2023-05-10T20:00:27.730Z,2.62
2023-05-10T20:03:29.924Z,3.10
2023-05-10T20:06:31.927Z,3.17
2023-05-10T20:09:34.090Z,2.72
2023-05-10T20:12:36.496Z,2.85
2023-05-10T20:15:38.592Z,3.10
2023-05-10T20:18:40.951Z,2.62
2023-05-10T20:21:42.826Z,3.10
2023-05-10T20:24:44.769Z,3.12
2023-05-10T20:27:46.588Z,3.95
2023-05-10T20:30:49.433Z,4.20
2023-05-10T20:33:51.991Z,4.45
2023-05-10T20:36:53.718Z,4.50
2023-05-10T20:39:56.953Z,4.05
2023-05-10T20:42:58.932Z,3.75
2023-05-10T20:46:05.473Z,4.72
2023-05-10T20:49:08.594Z,4.20
2023-05-10T20:52:10.459Z,4.28
2023-05-10T20:55:12.769Z,4.65
2023-05-10T20:58:14.328Z,4.50
2023-05-10T21:01:15.892Z,3.92
2023-05-10T21:04:17.403Z,4.15
2023-05-10T21:07:18.873Z,4.00
2023-05-10T21:10:21.561Z,4.70
2023-05-10T21:13:23.039Z,3.90
2023-05-10T21:16:24.567Z,3.22
2023-05-10T21:19:26.141Z,2.90
2023-05-10T21:22:27.743Z,2.87
2023-05-10T21:25:29.199Z,2.78
2023-05-10T21:28:31.196Z,2.90
2023-05-10T21:31:32.754Z,3.05
2023-05-10T21:34:34.290Z,2.80
2023-05-10T21:37:35.846Z,3.40
2023-05-10T21:40:38.359Z,4.22
2023-05-10T21:43:39.871Z,3.62
2023-05-10T21:46:41.360Z,3.58
2023-05-10T21:49:42.852Z,3.72
2023-05-10T21:52:44.430Z,4.05
2023-05-10T21:55:45.929Z,3.62
2023-05-10T21:58:47.643Z,3.53
2023-05-10T22:01:49.357Z,3.30
2023-05-10T22:04:51.255Z,3.75
2023-05-10T22:07:52.717Z,3.20
2023-05-10T22:10:54.313Z,3.28
2023-05-10T22:13:55.864Z,3.53
2023-05-10T22:16:58.064Z,3.60
2023-05-10T22:19:59.608Z,3.72
2023-05-10T22:23:01.182Z,4.20
2023-05-10T22:26:02.845Z,3.30
2023-05-10T22:29:04.414Z,3.15
2023-05-10T22:32:06.462Z,2.87
2023-05-10T22:35:08.392Z,3.28
2023-05-10T22:38:09.887Z,2.83
2023-05-10T22:41:11.450Z,3.17
2023-05-10T22:44:12.905Z,3.10
2023-05-10T22:47:14.624Z,2.95
2023-05-10T22:50:16.436Z,3.20
2023-05-10T22:53:18.168Z,3.72
2023-05-10T22:56:19.909Z,3.58
2023-05-10T22:59:21.607Z,3.22
2023-05-10T23:02:23.127Z,3.12
2023-05-10T23:05:24.667Z,2.60
2023-05-10T23:08:26.200Z,2.62
2023-05-10T23:11:27.637Z,2.62
2023-05-10T23:14:29.304Z,2.62
2023-05-10T23:17:30.911Z,2.80
2023-05-10T23:20:33.102Z,2.47
2023-05-10T23:23:34.799Z,2.75
2023-05-10T23:26:36.371Z,2.85
2023-05-10T23:29:37.876Z,2.85
2023-05-10T23:32:39.337Z,3.10
2023-05-10T23:35:40.915Z,2.75
2023-05-10T23:38:42.447Z,2.90
2023-05-10T23:41:44.007Z,2.72
2023-05-10T23:44:45.552Z,2.65
2023-05-10T23:47:47.090Z,2.97
2023-05-10T23:50:48.785Z,2.90
2023-05-10T23:53:50.371Z,3.08
2023-05-10T23:56:52.222Z,2.67
2023-05-10T23:59:53.742Z,3.20
